Главная страница
METAR-TAF:

METAR-TAF

Аэропорты :

Вадсё, Норвегия

широта: 70-04N, долгота: 029-51E, высота над уровнем моря: 3 м

Текущие метеонаблюдения

Эта сводка был подготовлена 1 час и 44 минут назад, в 20:50 UTC
Ветер 18 Узел от юго-западный
Температура 16°C
Влажность 82%
Давление 1001 hPa
Видимость 10 км и более
Отдельные облака на высоте 3000 фута

METAR: ENVD 172050Z 22018KT 9999 SCT030 16/13 Q1001

Время: 00:34 (22:34 UTC)

Прогноз

Эта сводка был подготовлена 5 часа и 34 минут назад, в 17:00 UTC
Прогноз действительный с 17-го 18 UTC до 17-го 23 UTC
Ветер 20 Узел от южный-юго-западный
Видимость 10 км и более
Отдельные облака на высоте 2500 фута
Рассеянная облачность на высоте 4000 фута
изменения
С 17-го 18 UTC до 17-го 20 UTC
Ветер 18 Узел от западный
временами
С 17-го 19 UTC до 17-го 23 UTC
Рассеянная облачность на высоте 2000 фута, Кучево-дождевые.
ливневые дожди

TAF: ENVD 171700Z 1718/1723 20020KT 9999 SCT025 BKN040 BECMG 1718/1720 26018KT TEMPO 1719/1723 SHRA BKN020CB

Метеонаблюдения и прогнозы для более 4000 аэропортов (сводки METAR и TAF).

Имеющиеся станции представлены на карте желтыми и красными точками.

Чтобы увидеть название станции, наведите на нее мышь.

Затем щелкните, чтобы увидеть метеонаблюдения и метеопрогнозы.

Управление картой: чтобы увеличить масштаб, щелкните зеленые кнопки с черным крестиком; чтобы уменьшить масштаб, щелкните зеленую кнопку с тире; для просмотра соседних карт щелкайте зеленые стрелки.


METAR-TAF: